EKVJ

Stauning Airport

Skjern / Ringkøbing, Denmark
METAR EKVJ 211350Z 30005KT 9999 FEW020 05/03 Q1016
Observed Flight Rules
Jan-21 @ 13:50 UTC (14 hours ago) Visual Flight Rules
Wind Visibility Clouds
300° at 5 knots 10,000+ meters
  • Few at 2,000' AGL
Temperatures Readings
Current 5°C / 41°F
Dewpoint 3°C / 37°F
Humidity 87%
Altimeter 30" Hg
Pressure 1015.92 hPa
Elevation 5
METAR EKVJ 211350Z 30005KT 9999 FEW020 05/03 Q1016
Observed Flight Rules
Jan-21 @ 13:50 UTC
(14 hours ago)
VFR
Wind Visibility
300° at 5 knots 10,000+ meters
Clouds
  • Few at 2,000' AGL
Temperature Dewpoint
5°C / 41°F 3°C / 37°F
Humidity Altimeter Pressure
87% 30" Hg 1015.92 hPa